Time;durP1;ratioP1;P1;durP2;ratioP2;P2;SDS_P1;SDS_P2;PMS_P1;PMS_P2;Temp;Humidity;BMP_temperature;BMP_pressure;BME280_temperature;BME280_humidity;BME280_pressure;Samples;Min_cycle;Max_cycle;Signal;HPM_P1;HPM_P2
2021/06/08 00:02:16;;;;;;;3.33;2.60;;;15.80;97.10;;;;;;5029460;28;20572;-92
2021/06/08 00:04:42;;;;;;;3.35;3.05;;;15.80;97.10;;;;;;5026492;28;20206;-92
2021/06/08 00:07:08;;;;;;;5.07;3.03;;;15.80;97.10;;;;;;5031244;28;20198;-91
2021/06/08 00:09:35;;;;;;;4.35;2.97;;;15.70;97.10;;;;;;5034002;28;20298;-91
2021/06/08 00:12:03;;;;;;;3.28;3.05;;;15.70;97.10;;;;;;5032740;28;20238;-92
2021/06/08 00:14:50;;;;;;;3.58;3.13;;;15.50;97.30;;;;;;5024725;28;20555;-92
2021/06/08 00:17:16;;;;;;;5.13;3.30;;;15.40;97.70;;;;;;5029649;28;20240;-92
2021/06/08 00:19:42;;;;;;;4.65;3.17;;;15.40;98.00;;;;;;5030162;28;20206;-92
2021/06/08 00:22:09;;;;;;;5.40;3.00;;;15.30;98.30;;;;;;5034083;28;20252;-93
2021/06/08 00:24:35;;;;;;;3.35;3.05;;;15.30;98.60;;;;;;5032298;28;20638;-91
2021/06/08 00:27:03;;;;;;;3.40;3.05;;;15.40;98.50;;;;;;5034033;28;20580;-91
2021/06/08 00:29:30;;;;;;;3.50;3.20;;;15.40;98.60;;;;;;5034245;28;20663;-92
2021/06/08 00:31:56;;;;;;;5.07;3.20;;;15.40;98.40;;;;;;5030849;28;20226;-92
2021/06/08 00:34:22;;;;;;;4.00;3.30;;;15.30;98.60;;;;;;5032006;28;20205;-91
2021/06/08 00:36:49;;;;;;;5.88;3.50;;;15.30;98.90;;;;;;5034673;28;20280;-92
2021/06/08 00:39:15;;;;;;;6.50;3.20;;;15.30;99.00;;;;;;5034584;28;20242;-91
2021/06/08 00:41:43;;;;;;;4.13;3.15;;;15.30;99.00;;;;;;5033725;28;20748;-91
2021/06/08 00:46:53;;;;;;;5.95;3.65;;;15.30;99.00;;;;;;5032106;28;20747;-93
2021/06/08 00:49:19;;;;;;;3.47;3.15;;;15.40;98.80;;;;;;5035571;28;20214;-92
2021/06/08 00:51:45;;;;;;;3.83;3.10;;;15.40;98.50;;;;;;5033550;28;20230;-92
2021/06/08 00:54:12;;;;;;;3.50;3.20;;;15.30;98.40;;;;;;5048614;28;20228;-91
2021/06/08 00:56:40;;;;;;;4.75;3.40;;;15.30;98.70;;;;;;5065670;28;20226;-92
2021/06/08 00:59:15;;;;;;;3.72;3.30;;;15.20;98.70;;;;;;5051169;28;20289;-91
2021/06/08 01:01:42;;;;;;;4.35;3.10;;;15.10;98.90;;;;;;5054720;28;20690;-92
2021/06/08 01:04:10;;;;;;;3.72;3.33;;;15.00;99.20;;;;;;5046258;28;20661;-91
2021/06/08 01:06:38;;;;;;;3.72;3.42;;;15.00;99.50;;;;;;5056172;28;20225;-92
2021/06/08 01:09:06;;;;;;;4.30;3.25;;;15.00;99.50;;;;;;5066766;28;20251;-91
2021/06/08 01:11:32;;;;;;;4.10;3.10;;;15.00;99.50;;;;;;5062549;28;20228;-92
2021/06/08 01:13:59;;;;;;;3.50;3.20;;;15.00;99.70;;;;;;5056863;28;20210;-93
2021/06/08 01:19:10;;;;;;;4.28;3.58;;;15.00;99.70;;;;;;5058312;28;20214;-92
2021/06/08 01:21:38;;;;;;;3.95;3.58;;;14.90;99.80;;;;;;5054612;28;20226;-91
2021/06/08 01:24:05;;;;;;;3.97;3.58;;;14.90;99.60;;;;;;5058724;28;20209;-92
2021/06/08 01:26:52;;;;;;;3.90;3.60;;;14.90;99.50;;;;;;5036916;28;20464;-94
2021/06/08 01:29:19;;;;;;;5.38;4.05;;;14.80;99.50;;;;;;5063881;28;20201;-92
2021/06/08 01:31:48;;;;;;;4.75;3.80;;;14.70;99.80;;;;;;5069516;28;20229;-91
2021/06/08 01:34:15;;;;;;;5.45;4.25;;;14.60;99.90;;;;;;5071157;28;20197;-92
2021/06/08 01:36:43;;;;;;;4.35;3.92;;;14.60;99.90;;;;;;5039289;28;20197;-92
2021/06/08 01:39:10;;;;;;;5.60;3.88;;;14.60;99.90;;;;;;5063630;28;20209;-92
2021/06/08 01:41:38;;;;;;;6.15;4.30;;;14.70;99.90;;;;;;5067937;28;20217;-92
2021/06/08 01:44:05;;;;;;;5.72;4.13;;;14.60;99.90;;;;;;5072104;28;20202;-92
2021/06/08 01:46:32;;;;;;;6.07;4.20;;;14.50;99.90;;;;;;5073773;28;20241;-92
2021/06/08 01:48:58;;;;;;;5.38;3.65;;;14.50;99.90;;;;;;5071795;28;20193;-91
2021/06/08 01:54:26;;;;;;;4.63;3.88;;;14.50;99.90;;;;;;5068705;28;20228;-92
2021/06/08 01:57:18;;;;;;;7.00;4.50;;;14.50;99.90;;;;;;5047634;28;20228;-92
2021/06/08 01:59:55;;;;;;;4.50;4.10;;;14.50;99.90;;;;;;5068646;28;20701;-92
2021/06/08 02:02:53;;;;;;;5.88;4.40;;;14.50;99.90;;;;;;5064023;28;20208;-92
2021/06/08 02:08:19;;;;;;;5.20;4.38;;;14.40;99.90;;;;;;5060193;28;20220;-92
2021/06/08 02:16:45;;;;;;;4.75;3.63;;;14.40;99.90;;;;;;5033542;28;20709;-91
2021/06/08 02:19:14;;;;;;;4.05;3.67;;;14.40;99.90;;;;;;5064117;28;20194;-92
2021/06/08 02:21:43;;;;;;;4.35;3.50;;;14.40;99.90;;;;;;5071999;28;20225;-92
2021/06/08 02:24:11;;;;;;;3.80;3.50;;;14.40;99.90;;;;;;5053685;28;20236;-92
2021/06/08 02:29:29;;;;;;;6.15;3.60;;;14.50;99.90;;;;;;5054329;28;20277;-92
2021/06/08 02:31:55;;;;;;;4.25;3.60;;;14.40;99.90;;;;;;5070254;28;20245;-93
2021/06/08 02:34:22;;;;;;;3.78;3.47;;;14.40;99.90;;;;;;5071543;28;20645;-91
2021/06/08 02:36:49;;;;;;;3.83;3.53;;;14.40;99.90;;;;;;5076853;28;20679;-92
2021/06/08 02:39:17;;;;;;;3.72;3.42;;;14.40;99.90;;;;;;5072270;28;20695;-91
2021/06/08 02:41:46;;;;;;;3.70;3.40;;;14.40;99.90;;;;;;5067221;28;20657;-92
2021/06/08 02:44:33;;;;;;;8.05;3.60;;;14.40;99.90;;;;;;5060167;28;20225;-92
2021/06/08 02:47:00;;;;;;;4.00;3.60;;;14.50;99.90;;;;;;5066551;28;20257;-92
2021/06/08 02:49:27;;;;;;;4.72;3.83;;;14.50;99.90;;;;;;5064777;28;20604;-91
2021/06/08 02:51:54;;;;;;;3.97;3.67;;;14.40;99.90;;;;;;5066892;28;20241;-92
2021/06/08 02:54:21;;;;;;;4.20;3.65;;;14.40;99.90;;;;;;5070734;28;20317;-92
2021/06/08 03:00:02;;;;;;;5.13;4.10;;;14.20;99.90;;;;;;5055992;28;20194;-92
2021/06/08 03:02:47;;;;;;;4.00;3.60;;;14.20;99.90;;;;;;5073634;28;20228;-92
2021/06/08 03:05:18;;;;;;;4.20;3.80;;;14.30;99.90;;;;;;5064758;28;20236;-91
2021/06/08 03:07:47;;;;;;;4.95;3.78;;;14.30;99.90;;;;;;5064587;28;20254;-92
2021/06/08 03:10:16;;;;;;;5.55;3.85;;;14.20;99.90;;;;;;5059200;28;20240;-92
2021/06/08 03:15:31;;;;;;;7.18;3.88;;;14.40;99.90;;;;;;5054640;28;20709;-92
2021/06/08 03:17:58;;;;;;;4.95;4.50;;;14.40;99.90;;;;;;5063895;28;20254;-93
2021/06/08 03:23:14;;;;;;;4.38;3.95;;;14.30;99.90;;;;;;5065989;28;20194;-92
2021/06/08 03:25:42;;;;;;;4.32;3.90;;;14.20;99.90;;;;;;5074493;28;20232;-91
2021/06/08 03:31:15;;;;;;;4.72;4.32;;;14.40;99.90;;;;;;5058738;28;20237;-92
2021/06/08 03:33:43;;;;;;;4.28;3.88;;;14.30;99.90;;;;;;5054717;28;20221;-91
2021/06/08 03:36:10;;;;;;;4.35;3.70;;;14.30;99.90;;;;;;5065397;28;20485;-91
2021/06/08 03:38:39;;;;;;;7.03;4.30;;;14.30;99.90;;;;;;5066465;28;20635;-92
2021/06/08 03:41:10;;;;;;;5.20;4.57;;;14.40;99.90;;;;;;5062187;28;20217;-92
2021/06/08 03:46:39;;;;;;;7.00;4.40;;;14.40;99.90;;;;;;5062234;28;20247;-91
2021/06/08 03:49:05;;;;;;;4.43;4.03;;;14.40;99.90;;;;;;5064843;28;20205;-93
2021/06/08 03:51:32;;;;;;;4.43;4.03;;;14.40;99.90;;;;;;5063200;28;20255;-92
2021/06/08 03:53:59;;;;;;;4.95;4.43;;;14.50;99.90;;;;;;5068152;28;20274;-92
2021/06/08 03:56:28;;;;;;;4.68;4.18;;;14.50;99.90;;;;;;5065362;28;20240;-92
2021/06/08 03:58:56;;;;;;;4.93;4.22;;;14.50;99.90;;;;;;5061176;28;20198;-92
2021/06/08 04:01:25;;;;;;;5.25;4.10;;;14.60;99.90;;;;;;5064555;28;20221;-91
2021/06/08 04:04:12;;;;;;;4.53;4.07;;;14.60;99.90;;;;;;5064201;28;20205;-91
2021/06/08 04:06:39;;;;;;;4.57;4.18;;;14.70;99.90;;;;;;5061525;28;20234;-92
2021/06/08 04:09:07;;;;;;;4.68;4.28;;;14.70;99.90;;;;;;5055101;28;20201;-92
2021/06/08 04:11:34;;;;;;;7.18;4.47;;;14.70;99.90;;;;;;5065784;28;20252;-92
2021/06/08 04:14:01;;;;;;;4.90;4.13;;;14.80;99.90;;;;;;5069553;28;20216;-92
2021/06/08 04:16:29;;;;;;;4.78;4.30;;;15.00;99.90;;;;;;5061201;28;20839;-92
2021/06/08 04:18:57;;;;;;;4.88;4.43;;;15.00;99.50;;;;;;5063313;28;20197;-92
2021/06/08 04:24:06;;;;;;;5.47;4.63;;;15.10;99.50;;;;;;5071496;28;20201;-90
2021/06/08 04:26:37;;;;;;;6.32;4.03;;;15.20;99.20;;;;;;5062651;28;20268;-92
2021/06/08 04:29:23;;;;;;;4.88;4.45;;;15.30;98.90;;;;;;5063282;28;20597;-92
2021/06/08 04:31:54;;;;;;;6.65;4.70;;;15.30;98.80;;;;;;5036123;28;20226;-92
2021/06/08 04:34:20;;;;;;;5.15;4.65;;;15.40;98.60;;;;;;5051351;28;20202;-93
2021/06/08 04:36:47;;;;;;;5.00;4.20;;;15.40;98.30;;;;;;5065849;28;20229;-92
2021/06/08 04:39:13;;;;;;;5.10;4.38;;;15.40;98.20;;;;;;5059478;28;20678;-92
2021/06/08 04:41:40;;;;;;;4.68;4.28;;;15.50;98.30;;;;;;5064544;28;20232;-92
2021/06/08 04:44:07;;;;;;;4.50;4.10;;;15.50;98.50;;;;;;5061381;28;20194;-91
2021/06/08 04:49:23;;;;;;;6.25;4.57;;;15.70;98.00;;;;;;5060269;28;20669;-92
2021/06/08 04:51:49;;;;;;;4.47;4.13;;;15.80;97.40;;;;;;5044494;28;20242;-91
2021/06/08 04:54:21;;;;;;;4.93;3.80;;;15.90;97.10;;;;;;5053783;28;20225;-91
2021/06/08 04:56:48;;;;;;;4.65;4.20;;;16.10;97.10;;;;;;5038874;28;20232;-91
2021/06/08 04:59:19;;;;;;;4.72;4.20;;;16.10;96.70;;;;;;5037235;28;20199;-91
2021/06/08 05:01:48;;;;;;;4.82;3.65;;;16.20;96.80;;;;;;5036624;28;20225;-91
2021/06/08 05:04:18;;;;;;;4.55;4.15;;;16.30;96.50;;;;;;5037615;28;20261;-90
2021/06/08 05:06:52;;;;;;;4.45;4.03;;;16.40;95.90;;;;;;5035051;28;20254;-92
2021/06/08 05:09:39;;;;;;;4.47;4.10;;;16.60;95.20;;;;;;5036159;28;20654;-92
2021/06/08 05:12:09;;;;;;;4.53;4.13;;;16.70;94.60;;;;;;5035050;28;20716;-92
2021/06/08 05:14:39;;;;;;;4.32;4.03;;;16.80;94.70;;;;;;5032144;28;20677;-91
2021/06/08 05:17:09;;;;;;;5.03;4.63;;;16.90;94.50;;;;;;5033234;28;20653;-91
2021/06/08 05:19:36;;;;;;;4.68;4.28;;;16.90;94.00;;;;;;5038512;28;20198;-92
2021/06/08 05:22:05;;;;;;;4.28;3.97;;;16.90;94.10;;;;;;5035072;28;20206;-92
2021/06/08 05:24:32;;;;;;;4.80;4.25;;;17.00;93.90;;;;;;5042077;28;20220;-89
2021/06/08 05:27:02;;;;;;;6.00;4.30;;;17.20;93.70;;;;;;5037840;28;20242;-93
2021/06/08 05:29:29;;;;;;;5.35;4.40;;;17.30;93.50;;;;;;5033591;28;20209;-90
2021/06/08 05:32:28;;;;;;;6.38;4.50;;;17.40;93.30;;;;;;5036389;28;20234;-92
2021/06/08 05:34:54;;;;;;;9.38;7.32;;;17.50;93.00;;;;;;5034274;28;20341;-90
2021/06/08 05:37:23;;;;;;;5.65;5.15;;;17.40;93.30;;;;;;5037523;28;20206;-92
2021/06/08 05:39:49;;;;;;;6.63;5.95;;;17.60;93.50;;;;;;5038017;28;20222;-92
2021/06/08 05:45:38;;;;;;;6.30;5.50;;;18.00;92.20;;;;;;5019848;28;20167;-93
2021/06/08 05:48:06;;;;;;;5.85;5.30;;;18.00;92.20;;;;;;5019874;28;20191;-89
2021/06/08 05:50:32;;;;;;;6.10;5.60;;;18.20;91.80;;;;;;5020573;28;20250;-92
2021/06/08 06:18:46;;;;;;;7.13;6.43;;;18.30;91.70;;;;;;4980881;28;20220;-90
2021/06/08 06:21:15;;;;;;;7.80;7.10;;;18.40;91.50;;;;;;4976356;28;20228;-92
2021/06/08 06:23:43;;;;;;;7.57;6.70;;;18.60;91.20;;;;;;4955850;28;20204;-91
2021/06/08 06:26:10;;;;;;;7.57;6.97;;;18.80;90.80;;;;;;4949965;28;20221;-89
2021/06/08 06:28:38;;;;;;;7.25;6.55;;;18.80;90.90;;;;;;4981748;28;20193;-89
2021/06/08 06:31:06;;;;;;;8.82;8.02;;;18.90;90.70;;;;;;4985726;28;20229;-90
2021/06/08 06:33:35;;;;;;;8.75;7.30;;;18.90;90.10;;;;;;4981062;28;20220;-89
2021/06/08 06:36:06;;;;;;;11.70;8.00;;;19.00;90.10;;;;;;4973932;28;20217;-90
2021/06/08 06:39:01;;;;;;;8.32;7.20;;;18.90;89.90;;;;;;4985757;28;20197;-89
2021/06/08 06:41:27;;;;;;;11.48;7.60;;;19.00;90.10;;;;;;4979026;28;20236;-89
2021/06/08 06:43:56;;;;;;;11.20;9.27;;;19.00;90.20;;;;;;4960457;28;20200;-93
2021/06/08 06:46:31;;;;;;;10.75;8.02;;;19.10;90.10;;;;;;4982298;28;20685;-90
2021/06/08 06:48:58;;;;;;;9.52;8.60;;;19.00;90.10;;;;;;4984064;28;20207;-90
2021/06/08 06:51:29;;;;;;;13.10;9.23;;;19.10;90.00;;;;;;4987221;28;20286;-90
2021/06/08 06:53:55;;;;;;;9.63;8.73;;;19.30;88.30;;;;;;4985383;28;20248;-90
2021/06/08 06:56:22;;;;;;;10.30;9.00;;;19.50;87.60;;;;;;4987222;28;20232;-90
2021/06/08 06:58:49;;;;;;;10.90;9.38;;;19.80;85.60;;;;;;4980314;28;20291;-89
2021/06/08 07:01:54;;;;;;;10.35;9.38;;;20.00;85.20;;;;;;4982288;28;20239;-90
2021/06/08 07:04:24;;;;;;;9.73;8.80;;;19.90;84.30;;;;;;4982612;28;20207;-91
2021/06/08 07:06:53;;;;;;;11.35;9.38;;;20.10;83.60;;;;;;4945113;28;20232;-91
2021/06/08 07:09:28;;;;;;;12.20;9.00;;;20.40;81.10;;;;;;4978965;28;20233;-91
2021/06/08 07:11:56;;;;;;;11.25;10.15;;;20.50;81.20;;;;;;4978172;28;20192;-91
2021/06/08 07:14:23;;;;;;;10.82;8.13;;;20.60;80.80;;;;;;4978915;28;20227;-93
2021/06/08 07:16:52;;;;;;;9.20;8.40;;;20.90;79.80;;;;;;4986200;28;20247;-95
2021/06/08 07:29:35;;;;;;;10.13;8.95;;;23.00;59.20;;;;;;4938618;29;20206;-92
2021/06/08 07:35:21;;;;;;;8.80;8.00;;;22.70;63.00;;;;;;4939845;28;20269;-92
2021/06/08 07:37:54;;;;;;;13.40;10.15;;;22.80;61.20;;;;;;4953468;29;20201;-89
2021/06/08 07:40:33;;;;;;;12.32;8.80;;;22.20;61.60;;;;;;4960408;28;20237;-88
2021/06/08 07:43:04;;;;;;;13.75;10.38;;;22.10;65.80;;;;;;4989705;28;20196;-88
2021/06/08 07:45:35;;;;;;;12.07;10.77;;;21.80;70.40;;;;;;5007231;28;20249;-88
2021/06/08 07:48:05;;;;;;;10.35;9.00;;;21.40;71.60;;;;;;4996946;28;20663;-89
2021/06/08 07:50:34;;;;;;;12.27;9.38;;;21.50;75.20;;;;;;4994278;28;20226;-89
2021/06/08 07:53:02;;;;;;;10.40;9.40;;;22.00;71.00;;;;;;4999586;28;20229;-89
2021/06/08 07:55:30;;;;;;;11.25;10.05;;;22.30;68.70;;;;;;5006280;28;20594;-87
2021/06/08 07:57:57;;;;;;;10.50;9.50;;;22.60;62.50;;;;;;5007097;28;20208;-89
2021/06/08 08:00:23;;;;;;;10.35;9.45;;;22.80;60.60;;;;;;5011278;28;20227;-89
2021/06/08 08:02:53;;;;;;;9.30;7.80;;;23.00;58.60;;;;;;5014166;28;20223;-91
2021/06/08 08:05:23;;;;;;;16.65;9.20;;;23.20;59.10;;;;;;5007439;28;20820;-88
2021/06/08 08:07:50;;;;;;;11.25;8.57;;;23.20;58.80;;;;;;5017004;28;20218;-89
2021/06/08 08:10:20;;;;;;;11.02;10.02;;;23.00;58.70;;;;;;5003757;28;20244;-88
2021/06/08 08:12:48;;;;;;;9.95;8.95;;;22.80;60.10;;;;;;4999492;28;20212;-88
2021/06/08 08:15:17;;;;;;;8.07;7.38;;;22.70;63.20;;;;;;5001594;28;20207;-88
2021/06/08 08:17:44;;;;;;;10.48;7.82;;;22.80;63.80;;;;;;4998621;28;20553;-88
2021/06/08 08:20:11;;;;;;;8.60;7.80;;;23.10;63.20;;;;;;4997960;28;20234;-89
2021/06/08 08:22:37;;;;;;;9.13;8.32;;;23.30;58.90;;;;;;4998472;28;20218;-88
2021/06/08 08:25:05;;;;;;;12.60;10.13;;;23.50;58.80;;;;;;4995640;28;20235;-87
2021/06/08 08:27:31;;;;;;;12.05;10.85;;;23.70;55.60;;;;;;4991514;28;20196;-88
2021/06/08 08:29:59;;;;;;;8.63;7.60;;;23.60;55.90;;;;;;5001634;28;20278;-88
2021/06/08 08:32:44;;;;;;;10.40;8.30;;;24.70;53.50;;;;;;4997986;28;20192;-90
2021/06/08 08:35:10;;;;;;;10.02;8.35;;;27.30;42.10;;;;;;4998279;28;20230;-92
2021/06/08 08:40:24;;;;;;;12.32;9.68;;;28.30;37.10;;;;;;4993667;28;20563;-88
2021/06/08 08:42:51;;;;;;;10.52;9.43;;;30.20;32.60;;;;;;4992931;28;20196;-90
2021/06/08 08:45:19;;;;;;;11.32;9.57;;;30.20;31.00;;;;;;5009513;28;20227;-89
2021/06/08 08:47:45;;;;;;;12.10;10.38;;;29.90;32.40;;;;;;4999823;28;20207;-88
2021/06/08 09:16:51;;;;;;;11.45;9.82;;;25.70;40.70;;;;;;4960077;28;20220;-86
2021/06/08 09:19:18;;;;;;;12.32;11.10;;;26.20;40.20;;;;;;4960099;28;20221;-85
2021/06/08 09:21:56;;;;;;;12.10;10.90;;;26.90;37.40;;;;;;4963079;28;20233;-84
2021/06/08 09:24:24;;;;;;;10.23;9.32;;;26.90;37.40;;;;;;4943374;29;20201;-83
2021/06/08 09:26:53;;;;;;;8.98;8.13;;;27.60;37.90;;;;;;4949816;28;20225;-87
2021/06/08 09:29:34;;;;;;;11.15;10.20;;;29.00;35.90;;;;;;4956431;28;20681;-86
2021/06/08 09:32:19;;;;;;;11.73;10.60;;;29.20;32.00;;;;;;4954196;29;20224;-86
2021/06/08 09:34:48;;;;;;;11.95;10.85;;;27.80;34.90;;;;;;4947401;28;20197;-84
2021/06/08 09:37:14;;;;;;;12.15;10.95;;;26.00;36.80;;;;;;4961043;28;20211;-84
2021/06/08 09:39:48;;;;;;;11.32;10.32;;;26.30;37.20;;;;;;4963717;28;20197;-85
2021/06/08 09:46:16;;;;;;;12.10;10.82;;;28.10;36.10;;;;;;4900149;29;20234;-85
2021/06/08 09:49:38;;;;;;;10.90;9.23;;;29.80;31.40;;;;;;4899207;29;20190;-86
2021/06/08 10:20:21;;;;;;;11.32;10.32;;;30.80;27.30;;;;;;5052170;28;20583;-86
2021/06/08 10:22:47;;;;;;;9.65;8.85;;;30.40;28.50;;;;;;5038339;28;20194;-86
2021/06/08 10:25:15;;;;;;;10.45;9.55;;;30.50;29.50;;;;;;5053728;28;20300;-87
2021/06/08 10:27:41;;;;;;;18.05;16.55;;;30.40;30.70;;;;;;5047584;28;20243;-89
2021/06/08 10:30:09;;;;;;;8.25;7.55;;;30.00;28.70;;;;;;5039851;28;20276;-88
2021/06/08 10:32:36;;;;;;;9.18;8.27;;;30.40;27.90;;;;;;5037732;28;20198;-90
2021/06/08 10:35:04;;;;;;;9.95;9.05;;;29.40;31.50;;;;;;5053912;28;20274;-85
2021/06/08 10:37:33;;;;;;;10.45;9.43;;;29.50;30.30;;;;;;5055028;28;20192;-89
2021/06/08 10:40:00;;;;;;;11.95;10.70;;;29.60;28.30;;;;;;5031867;28;20284;-90
2021/06/08 10:42:27;;;;;;;9.20;8.48;;;29.60;30.30;;;;;;5038215;28;20216;-89
2021/06/08 10:45:04;;;;;;;11.75;10.55;;;29.70;32.40;;;;;;5040920;28;20186;-89
2021/06/08 10:47:35;;;;;;;10.27;9.27;;;29.50;28.90;;;;;;5039764;28;20196;-91
2021/06/08 10:50:02;;;;;;;10.05;9.05;;;28.50;31.50;;;;;;5041762;28;20286;-85
2021/06/08 10:52:44;;;;;;;8.73;7.82;;;28.90;29.10;;;;;;5047018;28;20330;-88
2021/06/08 10:55:13;;;;;;;8.98;8.18;;;29.00;30.30;;;;;;5039025;28;20720;-87
2021/06/08 10:57:44;;;;;;;8.05;7.43;;;29.90;27.50;;;;;;5040049;28;20197;-87
2021/06/08 11:00:34;;;;;;;8.50;7.50;;;29.60;29.20;;;;;;5034453;28;20221;-87
2021/06/08 11:03:02;;;;;;;10.05;9.00;;;28.60;32.30;;;;;;5046973;28;20217;-87
2021/06/08 11:05:50;;;;;;;8.05;7.25;;;27.70;30.30;;;;;;5044200;28;20221;-86
2021/06/08 11:08:17;;;;;;;8.38;7.47;;;28.20;33.20;;;;;;5034994;28;21011;-84
2021/06/08 11:14:06;;;;;;;9.23;8.32;;;28.20;33.60;;;;;;5045076;28;20229;-85
2021/06/08 11:16:35;;;;;;;8.82;8.02;;;28.30;35.10;;;;;;5036535;28;20238;-87
2021/06/08 11:19:02;;;;;;;8.13;7.43;;;28.10;31.80;;;;;;5034408;28;20217;-86
2021/06/08 11:21:56;;;;;;;11.65;9.20;;;28.00;32.90;;;;;;5035928;28;20222;-87
2021/06/08 11:24:34;;;;;;;8.70;7.90;;;27.80;32.60;;;;;;5030265;28;20202;-88
2021/06/08 11:27:02;;;;;;;8.65;7.70;;;27.70;37.90;;;;;;5044147;28;20225;-88
2021/06/08 11:29:50;;;;;;;9.50;8.60;;;27.70;33.50;;;;;;5037581;28;20201;-89
2021/06/08 11:32:48;;;;;;;10.18;9.27;;;28.00;33.60;;;;;;5033094;28;20218;-89
2021/06/08 11:35:22;;;;;;;7.57;6.88;;;27.70;32.90;;;;;;5040474;28;20225;-90
2021/06/08 11:37:59;;;;;;;12.75;9.18;;;27.70;38.00;;;;;;5027804;28;20202;-90
2021/06/08 11:41:14;;;;;;;8.20;7.50;;;27.70;33.50;;;;;;5041311;28;20229;-90
2021/06/08 11:50:01;;;;;;;20.17;18.33;;;26.60;33.10;;;;;;5048210;28;20238;-82
2021/06/08 11:52:28;;;;;;;9.32;8.23;;;26.40;37.10;;;;;;5043433;28;20203;-82
2021/06/08 11:54:54;;;;;;;7.60;7.00;;;26.00;35.70;;;;;;5100417;23;20239;-84
2021/06/08 11:57:55;;;;;;;10.18;9.27;;;26.00;36.80;;;;;;4983037;28;20196;-83
2021/06/08 12:07:45;;;;;;;7.93;7.32;;;25.40;36.50;;;;;;4978776;28;20191;-84
2021/06/08 12:10:13;;;;;;;9.43;7.60;;;25.60;36.50;;;;;;4984693;28;20259;-84
2021/06/08 12:12:56;;;;;;;9.23;8.32;;;25.60;36.60;;;;;;4984915;28;20203;-85
2021/06/08 12:15:25;;;;;;;8.95;7.70;;;25.40;36.40;;;;;;4983429;28;20232;-84
2021/06/08 12:21:03;;;;;;;11.63;8.10;;;25.80;37.80;;;;;;4984590;28;20619;-82
2021/06/08 12:23:32;;;;;;;7.38;6.75;;;26.00;36.90;;;;;;4992138;28;20205;-83
2021/06/08 12:26:06;;;;;;;8.90;7.97;;;26.30;37.00;;;;;;4984462;28;20244;-85
2021/06/08 12:28:33;;;;;;;6.53;5.93;;;25.30;36.40;;;;;;4983670;28;20204;-84
2021/06/08 12:34:40;;;;;;;10.07;9.18;;;26.30;37.00;;;;;;4983839;28;20243;-81
2021/06/08 12:44:00;;;;;;;7.68;6.82;;;26.40;38.40;;;;;;4978794;28;20200;-83
2021/06/08 12:46:29;;;;;;;10.20;7.20;;;26.60;35.70;;;;;;4983594;28;20247;-83
2021/06/08 12:49:02;;;;;;;12.30;7.93;;;26.50;35.70;;;;;;4983497;28;20197;-86
2021/06/08 12:51:35;;;;;;;8.88;8.00;;;26.50;36.00;;;;;;4984245;28;20708;-83
2021/06/08 12:54:02;;;;;;;8.23;7.43;;;26.20;37.00;;;;;;4995042;28;20235;-87
2021/06/08 12:56:29;;;;;;;9.07;8.27;;;26.10;38.60;;;;;;4981944;28;20238;-81
2021/06/08 12:58:56;;;;;;;9.07;7.95;;;26.10;36.90;;;;;;4993941;28;20644;-82
2021/06/08 13:01:24;;;;;;;10.43;7.20;;;25.90;36.80;;;;;;4984614;28;20232;-87
2021/06/08 13:03:52;;;;;;;8.68;7.60;;;25.80;36.70;;;;;;4983833;28;20227;-86
2021/06/08 13:06:20;;;;;;;7.68;6.10;;;26.00;36.80;;;;;;4990397;28;20227;-86
2021/06/08 13:08:48;;;;;;;7.55;6.82;;;26.10;36.90;;;;;;4980255;28;20636;-86
2021/06/08 13:11:19;;;;;;;6.65;5.93;;;26.20;37.00;;;;;;4988368;28;20232;-86
2021/06/08 13:13:46;;;;;;;7.63;6.90;;;25.60;36.70;;;;;;4996222;28;20236;-88
2021/06/08 13:19:20;;;;;;;8.05;7.25;;;25.60;37.70;;;;;;5168878;27;20295;-87
2021/06/08 13:21:48;;;;;;;7.40;6.35;;;26.10;36.70;;;;;;5124444;27;20257;-88
2021/06/08 13:24:17;;;;;;;7.10;6.40;;;26.20;34.70;;;;;;5129171;28;20243;-87
2021/06/08 13:26:45;;;;;;;6.75;6.13;;;26.40;36.10;;;;;;5122729;27;20945;-84
2021/06/08 13:30:07;;;;;;;7.68;6.47;;;26.70;32.40;;;;;;5124444;27;20201;-87
2021/06/08 13:32:35;;;;;;;6.97;6.32;;;26.70;34.20;;;;;;5125923;27;20294;-87
2021/06/08 13:35:11;;;;;;;6.53;5.93;;;26.80;32.00;;;;;;5130353;27;20914;-86
2021/06/08 13:37:40;;;;;;;9.20;6.40;;;26.90;33.40;;;;;;5129306;27;20225;-83
2021/06/08 13:40:14;;;;;;;10.63;6.65;;;26.60;34.10;;;;;;5126840;27;20223;-88
2021/06/08 13:42:41;;;;;;;8.35;6.75;;;26.50;33.80;;;;;;5121318;27;20197;-87
2021/06/08 13:45:10;;;;;;;10.98;6.20;;;26.50;33.50;;;;;;5126366;27;20242;-86
2021/06/08 13:47:38;;;;;;;7.65;6.75;;;26.50;35.00;;;;;;5130736;27;20203;-88
2021/06/08 13:50:06;;;;;;;9.90;7.30;;;26.10;32.10;;;;;;5130863;27;20244;-90
2021/06/08 13:53:01;;;;;;;8.45;5.75;;;25.80;33.80;;;;;;5115277;28;20211;-89
2021/06/08 13:55:28;;;;;;;6.30;5.53;;;25.80;32.20;;;;;;5110290;28;20314;-85
2021/06/08 14:01:04;;;;;;;5.75;5.25;;;26.30;31.10;;;;;;5107452;27;20220;-85
2021/06/08 14:03:31;;;;;;;5.80;5.20;;;26.50;32.50;;;;;;5105039;28;20199;-86
2021/06/08 14:06:10;;;;;;;8.02;5.55;;;26.50;30.00;;;;;;5104979;28;20235;-84
2021/06/08 14:08:38;;;;;;;8.18;4.82;;;26.60;29.00;;;;;;5111851;27;20655;-84
2021/06/08 14:11:05;;;;;;;6.07;4.88;;;26.80;29.30;;;;;;5105339;28;20457;-84
2021/06/08 14:13:38;;;;;;;7.20;4.40;;;26.60;28.40;;;;;;5101587;28;20201;-83
2021/06/08 14:16:06;;;;;;;7.00;4.82;;;26.70;29.00;;;;;;5110910;27;20230;-83
2021/06/08 14:18:50;;;;;;;4.97;4.47;;;26.60;26.40;;;;;;5104807;28;20263;-87
2021/06/08 14:21:21;;;;;;;5.28;4.45;;;26.50;28.00;;;;;;5107404;28;20574;-86
2021/06/08 14:23:54;;;;;;;4.90;4.50;;;26.30;27.80;;;;;;5104023;28;20199;-86
2021/06/08 14:26:23;;;;;;;5.22;4.72;;;25.70;28.00;;;;;;5104819;28;20220;-87
2021/06/08 14:28:49;;;;;;;5.82;4.60;;;25.50;29.40;;;;;;5100915;28;20259;-86
2021/06/08 14:31:16;;;;;;;5.32;4.90;;;25.60;31.90;;;;;;5091801;28;20249;-85
2021/06/08 14:33:42;;;;;;;5.05;4.55;;;25.90;31.60;;;;;;5091985;28;20218;-85
2021/06/08 14:36:09;;;;;;;6.70;4.90;;;26.00;29.50;;;;;;5091922;28;20242;-85
2021/06/08 14:38:36;;;;;;;7.57;4.85;;;26.00;28.40;;;;;;5087045;28;20809;-85
2021/06/08 14:41:04;;;;;;;4.95;4.43;;;26.00;28.20;;;;;;5082687;28;20225;-86
2021/06/08 14:43:31;;;;;;;9.05;4.65;;;26.00;27.90;;;;;;5085107;28;20208;-85
2021/06/08 14:45:58;;;;;;;5.00;4.43;;;26.00;28.20;;;;;;5090085;28;20227;-85
2021/06/08 14:48:24;;;;;;;6.25;4.50;;;25.80;28.00;;;;;;5092950;28;20205;-86
2021/06/08 14:50:50;;;;;;;6.35;4.63;;;25.60;29.30;;;;;;5085216;28;20221;-84
2021/06/08 14:53:17;;;;;;;6.43;4.70;;;25.50;28.70;;;;;;5089845;28;20228;-86
2021/06/08 14:55:43;;;;;;;4.88;4.45;;;25.70;28.70;;;;;;5092150;28;20228;-85
2021/06/08 14:58:12;;;;;;;9.38;4.50;;;25.70;29.20;;;;;;5093708;28;20224;-87
2021/06/08 15:00:38;;;;;;;4.90;4.50;;;25.90;29.20;;;;;;5095700;28;20224;-87
2021/06/08 15:03:20;;;;;;;4.90;4.40;;;25.90;28.20;;;;;;5089697;28;20205;-88
2021/06/08 15:05:54;;;;;;;5.30;4.82;;;25.70;27.90;;;;;;5077921;28;20212;-89
2021/06/08 15:08:20;;;;;;;7.95;4.35;;;25.30;29.60;;;;;;5095035;28;20577;-86
2021/06/08 15:10:47;;;;;;;4.95;4.45;;;25.20;30.90;;;;;;5090144;28;20269;-88
2021/06/08 15:13:15;;;;;;;5.38;4.88;;;25.10;31.40;;;;;;5095047;28;20210;-89
2021/06/08 15:15:42;;;;;;;5.60;4.88;;;24.80;32.50;;;;;;5086834;28;20704;-88
2021/06/08 15:18:09;;;;;;;5.07;4.65;;;25.00;33.20;;;;;;5089861;28;20629;-87
2021/06/08 15:20:36;;;;;;;5.50;5.10;;;25.10;31.80;;;;;;5089350;28;20243;-87
2021/06/08 15:23:33;;;;;;;6.88;5.50;;;25.10;31.70;;;;;;5092163;28;20212;-86
2021/06/08 15:29:34;;;;;;;6.43;5.22;;;24.80;32.90;;;;;;5083793;28;20228;-88
2021/06/08 15:32:08;;;;;;;5.95;5.00;;;24.80;32.70;;;;;;5083657;28;20298;-88
2021/06/08 15:34:36;;;;;;;6.53;4.53;;;24.80;33.30;;;;;;5080134;28;20204;-89
2021/06/08 15:37:03;;;;;;;5.47;4.90;;;25.00;32.80;;;;;;5080364;28;20220;-87
2021/06/08 15:39:33;;;;;;;6.88;5.07;;;25.10;32.30;;;;;;5085435;28;20292;-87
2021/06/08 15:41:59;;;;;;;6.47;5.20;;;25.20;33.20;;;;;;5085108;28;20228;-86
2021/06/08 15:44:28;;;;;;;7.90;5.03;;;25.20;32.90;;;;;;5091678;28;20534;-88
2021/06/08 15:47:02;;;;;;;5.43;4.90;;;25.10;32.80;;;;;;5089509;28;20327;-87
2021/06/08 15:49:28;;;;;;;8.05;4.65;;;25.10;34.50;;;;;;5089610;28;20201;-87
2021/06/08 15:51:55;;;;;;;5.60;5.03;;;25.00;33.50;;;;;;5086643;28;20232;-88
2021/06/08 15:54:22;;;;;;;5.30;4.80;;;24.90;33.70;;;;;;5084085;28;20256;-86
2021/06/08 15:56:49;;;;;;;5.53;5.03;;;25.10;33.70;;;;;;5089036;28;20212;-89
2021/06/08 15:59:16;;;;;;;6.75;4.75;;;25.20;32.80;;;;;;5085701;28;20231;-89
2021/06/08 16:01:44;;;;;;;5.95;4.85;;;25.50;31.70;;;;;;5081465;28;20232;-89
2021/06/08 16:04:11;;;;;;;7.38;5.15;;;25.70;31.20;;;;;;5085623;28;20208;-87
2021/06/08 16:06:38;;;;;;;5.72;4.70;;;25.90;32.10;;;;;;5089913;28;20239;-88